sensor_id;sensor_type;location;lat;lon;timestamp;pressure;altitude;pressure_sealevel;temperature;humidity
1371;BME280;14306;49.942;11.570;2022-12-29T00:01:00;97110.78;;;7.52;78.89
1371;BME280;14306;49.942;11.570;2022-12-29T00:03:28;97105.53;;;7.42;78.32
1371;BME280;14306;49.942;11.570;2022-12-29T00:05:57;97098.97;;;7.48;79.52
1371;BME280;14306;49.942;11.570;2022-12-29T00:08:25;97100.22;;;7.37;80.15
1371;BME280;14306;49.942;11.570;2022-12-29T00:11:07;97103.81;;;7.51;80.45
1371;BME280;14306;49.942;11.570;2022-12-29T00:13:35;97106.41;;;7.37;80.79
1371;BME280;14306;49.942;11.570;2022-12-29T00:16:23;97099.13;;;7.38;80.83
1371;BME280;14306;49.942;11.570;2022-12-29T00:18:51;97093.59;;;7.48;81.11
1371;BME280;14306;49.942;11.570;2022-12-29T00:21:21;97102.63;;;7.38;82.09
1371;BME280;14306;49.942;11.570;2022-12-29T00:24:10;97095.63;;;7.56;82.40
1371;BME280;14306;49.942;11.570;2022-12-29T00:27:11;97086.38;;;7.62;81.97
1371;BME280;14306;49.942;11.570;2022-12-29T00:29:57;97086.09;;;7.63;82.85
1371;BME280;14306;49.942;11.570;2022-12-29T00:32:45;97085.28;;;7.63;82.39
1371;BME280;14306;49.942;11.570;2022-12-29T00:35:33;97074.44;;;7.68;81.44
1371;BME280;14306;49.942;11.570;2022-12-29T00:38:07;97085.72;;;7.70;82.44
1371;BME280;14306;49.942;11.570;2022-12-29T00:40:53;97081.88;;;7.57;82.04
1371;BME280;14306;49.942;11.570;2022-12-29T00:43:39;97080.09;;;7.66;82.77
1371;BME280;14306;49.942;11.570;2022-12-29T00:46:37;97087.59;;;7.69;81.85
1371;BME280;14306;49.942;11.570;2022-12-29T00:49:07;97094.53;;;7.75;81.50
1371;BME280;14306;49.942;11.570;2022-12-29T00:51:54;97081.84;;;7.76;82.31
1371;BME280;14306;49.942;11.570;2022-12-29T00:54:22;97085.50;;;7.66;82.04
1371;BME280;14306;49.942;11.570;2022-12-29T00:56:52;97076.97;;;7.78;83.10
1371;BME280;14306;49.942;11.570;2022-12-29T00:59:20;97084.41;;;7.67;83.76
1371;BME280;14306;49.942;11.570;2022-12-29T01:01:51;97081.22;;;7.65;83.45
1371;BME280;14306;49.942;11.570;2022-12-29T01:04:23;97080.25;;;7.75;82.33
1371;BME280;14306;49.942;11.570;2022-12-29T01:06:52;97077.56;;;7.75;83.23
1371;BME280;14306;49.942;11.570;2022-12-29T01:09:20;97075.38;;;7.77;82.68
1371;BME280;14306;49.942;11.570;2022-12-29T01:12:08;97077.84;;;7.73;83.40
1371;BME280;14306;49.942;11.570;2022-12-29T01:14:37;97085.69;;;7.88;83.34
1371;BME280;14306;49.942;11.570;2022-12-29T01:17:05;97067.63;;;7.70;82.70
1371;BME280;14306;49.942;11.570;2022-12-29T01:19:34;97075.44;;;7.72;82.57
1371;BME280;14306;49.942;11.570;2022-12-29T01:22:06;97066.81;;;7.88;81.64
1371;BME280;14306;49.942;11.570;2022-12-29T01:24:34;97065.31;;;7.82;82.03
1371;BME280;14306;49.942;11.570;2022-12-29T01:27:02;97063.97;;;7.80;81.56
1371;BME280;14306;49.942;11.570;2022-12-29T01:29:31;97067.03;;;7.92;81.70
1371;BME280;14306;49.942;11.570;2022-12-29T01:31:58;97056.66;;;7.99;81.16
1371;BME280;14306;49.942;11.570;2022-12-29T01:34:26;97060.50;;;8.11;81.05
1371;BME280;14306;49.942;11.570;2022-12-29T01:36:56;97050.25;;;7.95;81.04
1371;BME280;14306;49.942;11.570;2022-12-29T01:39:24;97049.69;;;8.11;80.40
1371;BME280;14306;49.942;11.570;2022-12-29T01:41:52;97043.19;;;8.12;80.14
1371;BME280;14306;49.942;11.570;2022-12-29T01:44:48;97040.69;;;8.02;79.98
1371;BME280;14306;49.942;11.570;2022-12-29T01:47:25;97037.97;;;8.21;79.85
1371;BME280;14306;49.942;11.570;2022-12-29T01:49:55;97033.28;;;8.40;79.53
1371;BME280;14306;49.942;11.570;2022-12-29T01:52:29;97031.28;;;8.46;80.00
1371;BME280;14306;49.942;11.570;2022-12-29T01:54:58;97027.59;;;8.55;78.93
1371;BME280;14306;49.942;11.570;2022-12-29T01:57:30;97017.78;;;8.59;78.44
1371;BME280;14306;49.942;11.570;2022-12-29T02:00:01;97021.59;;;8.58;78.18
1371;BME280;14306;49.942;11.570;2022-12-29T02:02:31;97013.28;;;8.68;78.09
1371;BME280;14306;49.942;11.570;2022-12-29T02:05:03;97015.69;;;8.70;78.83
1371;BME280;14306;49.942;11.570;2022-12-29T02:07:35;97011.56;;;8.72;78.14
1371;BME280;14306;49.942;11.570;2022-12-29T02:10:04;97007.97;;;8.77;78.17
1371;BME280;14306;49.942;11.570;2022-12-29T02:12:33;96994.75;;;8.89;77.62
1371;BME280;14306;49.942;11.570;2022-12-29T02:15:02;97008.22;;;9.02;76.97
1371;BME280;14306;49.942;11.570;2022-12-29T02:17:44;97007.84;;;9.09;76.62
1371;BME280;14306;49.942;11.570;2022-12-29T02:20:45;97010.06;;;9.29;76.73
1371;BME280;14306;49.942;11.570;2022-12-29T02:23:34;96997.66;;;9.28;76.74
1371;BME280;14306;49.942;11.570;2022-12-29T02:26:38;96984.22;;;9.36;76.66
1371;BME280;14306;49.942;11.570;2022-12-29T02:29:42;96998.22;;;9.60;76.30
1371;BME280;14306;49.942;11.570;2022-12-29T02:32:24;97002.78;;;9.73;75.25
1371;BME280;14306;49.942;11.570;2022-12-29T02:35:02;97006.41;;;9.69;75.86
1371;BME280;14306;49.942;11.570;2022-12-29T02:37:40;97015.34;;;10.00;75.32
1371;BME280;14306;49.942;11.570;2022-12-29T02:40:19;97012.84;;;10.03;74.86
1371;BME280;14306;49.942;11.570;2022-12-29T02:42:55;97010.03;;;10.08;74.78
1371;BME280;14306;49.942;11.570;2022-12-29T02:45:30;97012.47;;;10.18;73.22
1371;BME280;14306;49.942;11.570;2022-12-29T02:48:06;97016.84;;;10.36;72.22
1371;BME280;14306;49.942;11.570;2022-12-29T02:50:39;97012.13;;;10.50;71.76
1371;BME280;14306;49.942;11.570;2022-12-29T02:53:12;97012.28;;;10.54;71.58
1371;BME280;14306;49.942;11.570;2022-12-29T02:55:48;97006.00;;;10.75;71.53
1371;BME280;14306;49.942;11.570;2022-12-29T02:58:17;96991.16;;;10.64;71.56
1371;BME280;14306;49.942;11.570;2022-12-29T03:00:54;97004.69;;;10.64;72.48
1371;BME280;14306;49.942;11.570;2022-12-29T03:03:34;97006.44;;;10.60;73.02
1371;BME280;14306;49.942;11.570;2022-12-29T03:06:20;96993.41;;;10.71;70.82
1371;BME280;14306;49.942;11.570;2022-12-29T03:08:55;96985.63;;;10.86;72.25
1371;BME280;14306;49.942;11.570;2022-12-29T03:11:28;96991.03;;;10.78;71.98
1371;BME280;14306;49.942;11.570;2022-12-29T03:14:17;96989.75;;;10.84;70.78
1371;BME280;14306;49.942;11.570;2022-12-29T03:17:12;96987.69;;;10.89;70.31
1371;BME280;14306;49.942;11.570;2022-12-29T03:19:51;96988.38;;;11.03;70.22
1371;BME280;14306;49.942;11.570;2022-12-29T03:22:23;96984.53;;;10.87;70.27
1371;BME280;14306;49.942;11.570;2022-12-29T03:24:59;96990.28;;;10.94;69.89
1371;BME280;14306;49.942;11.570;2022-12-29T03:27:30;96986.13;;;11.05;69.71
1371;BME280;14306;49.942;11.570;2022-12-29T03:30:03;96989.81;;;11.18;69.08
1371;BME280;14306;49.942;11.570;2022-12-29T03:32:36;96989.16;;;11.12;69.56
1371;BME280;14306;49.942;11.570;2022-12-29T03:35:11;96992.19;;;11.11;67.73
1371;BME280;14306;49.942;11.570;2022-12-29T03:37:42;96990.94;;;11.17;68.47
1371;BME280;14306;49.942;11.570;2022-12-29T03:40:12;96989.81;;;11.18;67.61
1371;BME280;14306;49.942;11.570;2022-12-29T03:42:40;96982.78;;;11.08;69.20
1371;BME280;14306;49.942;11.570;2022-12-29T03:45:10;96978.97;;;11.18;66.91
1371;BME280;14306;49.942;11.570;2022-12-29T03:47:39;96978.50;;;11.16;68.16
1371;BME280;14306;49.942;11.570;2022-12-29T03:50:08;96979.31;;;11.25;68.04
1371;BME280;14306;49.942;11.570;2022-12-29T03:52:36;96982.97;;;11.29;67.42
1371;BME280;14306;49.942;11.570;2022-12-29T03:55:05;96980.41;;;11.15;67.26
1371;BME280;14306;49.942;11.570;2022-12-29T03:57:33;96982.81;;;11.25;67.58
1371;BME280;14306;49.942;11.570;2022-12-29T04:00:02;96979.94;;;11.39;68.04
1371;BME280;14306;49.942;11.570;2022-12-29T04:02:30;96989.34;;;11.33;68.16
1371;BME280;14306;49.942;11.570;2022-12-29T04:04:58;96987.28;;;11.38;67.90
1371;BME280;14306;49.942;11.570;2022-12-29T04:07:27;96989.66;;;11.31;68.38
1371;BME280;14306;49.942;11.570;2022-12-29T04:09:55;96991.59;;;11.31;69.11
1371;BME280;14306;49.942;11.570;2022-12-29T04:12:23;96983.63;;;11.17;70.21
1371;BME280;14306;49.942;11.570;2022-12-29T04:14:51;96995.56;;;11.16;70.86
1371;BME280;14306;49.942;11.570;2022-12-29T04:17:19;96995.69;;;11.03;72.60
1371;BME280;14306;49.942;11.570;2022-12-29T04:19:47;96981.06;;;11.04;72.78
1371;BME280;14306;49.942;11.570;2022-12-29T04:22:15;96983.09;;;10.90;72.50
1371;BME280;14306;49.942;11.570;2022-12-29T04:24:45;96987.09;;;11.01;71.54
1371;BME280;14306;49.942;11.570;2022-12-29T04:27:13;96989.81;;;11.01;71.79
1371;BME280;14306;49.942;11.570;2022-12-29T04:29:41;96992.84;;;10.99;71.95
1371;BME280;14306;49.942;11.570;2022-12-29T04:32:09;96996.00;;;11.01;70.64
1371;BME280;14306;49.942;11.570;2022-12-29T04:34:37;96993.81;;;11.12;71.55
1371;BME280;14306;49.942;11.570;2022-12-29T04:37:05;96993.78;;;11.03;72.27
1371;BME280;14306;49.942;11.570;2022-12-29T04:39:33;96993.81;;;11.12;71.79
1371;BME280;14306;49.942;11.570;2022-12-29T04:42:02;96988.97;;;10.92;71.62
1371;BME280;14306;49.942;11.570;2022-12-29T04:44:30;96995.56;;;11.08;71.29
1371;BME280;14306;49.942;11.570;2022-12-29T04:46:58;96981.81;;;10.96;71.58
1371;BME280;14306;49.942;11.570;2022-12-29T04:49:26;96988.69;;;11.19;69.90
1371;BME280;14306;49.942;11.570;2022-12-29T04:51:54;96979.78;;;11.35;69.72
1371;BME280;14306;49.942;11.570;2022-12-29T04:54:22;96984.25;;;11.23;68.81
1371;BME280;14306;49.942;11.570;2022-12-29T04:56:50;96987.94;;;11.27;68.77
1371;BME280;14306;49.942;11.570;2022-12-29T04:59:19;96982.97;;;11.20;66.97
1371;BME280;14306;49.942;11.570;2022-12-29T05:01:47;96981.69;;;11.18;67.97
1371;BME280;14306;49.942;11.570;2022-12-29T05:04:15;96976.91;;;11.23;67.69
1371;BME280;14306;49.942;11.570;2022-12-29T05:06:43;96973.72;;;11.21;68.85
1371;BME280;14306;49.942;11.570;2022-12-29T05:09:11;96979.28;;;11.16;67.26
1371;BME280;14306;49.942;11.570;2022-12-29T05:11:39;96980.56;;;11.10;68.87
1371;BME280;14306;49.942;11.570;2022-12-29T05:14:08;96965.50;;;10.70;69.16
1371;BME280;14306;49.942;11.570;2022-12-29T05:16:37;96967.75;;;10.68;71.51
1371;BME280;14306;49.942;11.570;2022-12-29T05:19:05;96964.91;;;10.82;70.06
1371;BME280;14306;49.942;11.570;2022-12-29T05:21:33;96968.28;;;10.87;69.38
1371;BME280;14306;49.942;11.570;2022-12-29T05:24:01;96970.97;;;10.79;70.65
1371;BME280;14306;49.942;11.570;2022-12-29T05:26:28;96965.78;;;10.52;69.89
1371;BME280;14306;49.942;11.570;2022-12-29T05:28:57;96968.63;;;10.08;71.84
1371;BME280;14306;49.942;11.570;2022-12-29T05:31:26;96968.75;;;10.03;70.82
1371;BME280;14306;49.942;11.570;2022-12-29T05:33:56;96962.03;;;9.70;71.61
1371;BME280;14306;49.942;11.570;2022-12-29T05:36:24;96965.75;;;9.74;72.30
1371;BME280;14306;49.942;11.570;2022-12-29T05:38:52;96972.06;;;9.69;72.08
1371;BME280;14306;49.942;11.570;2022-12-29T05:41:20;96965.47;;;9.62;72.02
1371;BME280;14306;49.942;11.570;2022-12-29T05:43:48;96964.25;;;9.68;72.19
1371;BME280;14306;49.942;11.570;2022-12-29T05:46:17;96963.97;;;9.47;72.48
1371;BME280;14306;49.942;11.570;2022-12-29T05:48:45;96962.59;;;9.36;72.38
1371;BME280;14306;49.942;11.570;2022-12-29T05:51:15;96963.38;;;9.81;71.66
1371;BME280;14306;49.942;11.570;2022-12-29T05:53:43;96968.06;;;9.45;72.26
1371;BME280;14306;49.942;11.570;2022-12-29T05:56:11;96970.03;;;9.53;71.82
1371;BME280;14306;49.942;11.570;2022-12-29T05:58:40;96969.97;;;9.44;72.86
1371;BME280;14306;49.942;11.570;2022-12-29T06:01:08;96973.91;;;9.38;72.00
1371;BME280;14306;49.942;11.570;2022-12-29T06:03:35;96966.59;;;9.17;72.55
1371;BME280;14306;49.942;11.570;2022-12-29T06:06:11;96955.06;;;8.89;73.47
1371;BME280;14306;49.942;11.570;2022-12-29T06:08:40;96947.09;;;8.84;73.70
1371;BME280;14306;49.942;11.570;2022-12-29T06:11:09;96956.00;;;8.71;74.05
1371;BME280;14306;49.942;11.570;2022-12-29T06:13:37;96944.00;;;8.77;74.28
1371;BME280;14306;49.942;11.570;2022-12-29T06:16:06;96958.97;;;8.83;73.75
1371;BME280;14306;49.942;11.570;2022-12-29T06:18:34;96949.88;;;8.79;74.24
1371;BME280;14306;49.942;11.570;2022-12-29T06:21:03;96945.09;;;8.63;74.84
1371;BME280;14306;49.942;11.570;2022-12-29T06:23:31;96949.66;;;8.40;74.52
1371;BME280;14306;49.942;11.570;2022-12-29T06:26:01;96957.44;;;8.42;75.02
1371;BME280;14306;49.942;11.570;2022-12-29T06:28:29;96952.03;;;8.42;74.68
1371;BME280;14306;49.942;11.570;2022-12-29T06:30:57;96959.03;;;8.43;74.87
1371;BME280;14306;49.942;11.570;2022-12-29T06:33:25;96955.81;;;8.68;74.21
1371;BME280;14306;49.942;11.570;2022-12-29T06:35:53;96942.72;;;8.75;73.43
1371;BME280;14306;49.942;11.570;2022-12-29T06:38:21;96951.28;;;8.77;72.82
1371;BME280;14306;49.942;11.570;2022-12-29T06:40:49;96945.97;;;8.85;73.01
1371;BME280;14306;49.942;11.570;2022-12-29T06:43:18;96952.53;;;8.93;72.38
1371;BME280;14306;49.942;11.570;2022-12-29T06:45:46;96952.63;;;9.01;72.27
1371;BME280;14306;49.942;11.570;2022-12-29T06:48:15;96950.53;;;8.98;71.85
1371;BME280;14306;49.942;11.570;2022-12-29T06:50:43;96953.09;;;9.17;71.77
1371;BME280;14306;49.942;11.570;2022-12-29T06:53:10;96965.78;;;9.16;71.67
1371;BME280;14306;49.942;11.570;2022-12-29T06:55:39;96967.13;;;9.05;71.21
1371;BME280;14306;49.942;11.570;2022-12-29T06:58:07;96968.88;;;9.23;71.23
1371;BME280;14306;49.942;11.570;2022-12-29T07:00:36;96963.53;;;9.32;70.67
1371;BME280;14306;49.942;11.570;2022-12-29T07:03:04;96950.47;;;9.12;70.55
1371;BME280;14306;49.942;11.570;2022-12-29T07:05:33;96958.50;;;9.17;71.60
1371;BME280;14306;49.942;11.570;2022-12-29T07:08:00;96957.75;;;9.25;70.97
1371;BME280;14306;49.942;11.570;2022-12-29T07:10:29;96962.81;;;9.04;71.47
1371;BME280;14306;49.942;11.570;2022-12-29T07:12:57;96964.19;;;9.15;71.04
1371;BME280;14306;49.942;11.570;2022-12-29T07:15:26;96973.34;;;9.06;71.54
1371;BME280;14306;49.942;11.570;2022-12-29T07:17:56;96964.63;;;9.09;71.90
1371;BME280;14306;49.942;11.570;2022-12-29T07:20:23;96965.78;;;9.16;71.01
1371;BME280;14306;49.942;11.570;2022-12-29T07:22:52;96968.50;;;9.16;71.17
1371;BME280;14306;49.942;11.570;2022-12-29T07:25:21;96965.84;;;9.03;71.45
1371;BME280;14306;49.942;11.570;2022-12-29T07:27:49;96970.38;;;8.94;72.07
1371;BME280;14306;49.942;11.570;2022-12-29T07:30:17;96986.28;;;9.17;71.51
1371;BME280;14306;49.942;11.570;2022-12-29T07:32:46;96981.69;;;9.18;70.81
1371;BME280;14306;49.942;11.570;2022-12-29T07:35:15;96984.34;;;8.96;71.75
1371;BME280;14306;49.942;11.570;2022-12-29T07:37:43;96984.81;;;9.33;71.02
1371;BME280;14306;49.942;11.570;2022-12-29T07:40:11;96998.78;;;9.71;70.09
1371;BME280;14306;49.942;11.570;2022-12-29T07:42:39;97004.13;;;9.40;69.57
1371;BME280;14306;49.942;11.570;2022-12-29T07:45:08;97002.00;;;9.51;69.33
1371;BME280;14306;49.942;11.570;2022-12-29T07:47:37;97006.56;;;9.28;70.29
1371;BME280;14306;49.942;11.570;2022-12-29T07:50:06;96994.59;;;9.43;69.58
1371;BME280;14306;49.942;11.570;2022-12-29T07:52:35;96999.50;;;9.19;71.19
1371;BME280;14306;49.942;11.570;2022-12-29T07:55:04;96991.63;;;9.09;70.98
1371;BME280;14306;49.942;11.570;2022-12-29T07:57:32;96998.78;;;8.78;71.82
1371;BME280;14306;49.942;11.570;2022-12-29T08:00:00;96994.44;;;9.04;71.53
1371;BME280;14306;49.942;11.570;2022-12-29T08:02:28;96998.38;;;8.98;71.74
1371;BME280;14306;49.942;11.570;2022-12-29T08:04:56;96997.44;;;9.02;72.14
1371;BME280;14306;49.942;11.570;2022-12-29T08:07:24;97002.91;;;9.11;71.11
1371;BME280;14306;49.942;11.570;2022-12-29T08:09:53;97007.63;;;9.41;71.70
1371;BME280;14306;49.942;11.570;2022-12-29T08:12:21;97003.16;;;9.80;69.50
1371;BME280;14306;49.942;11.570;2022-12-29T08:14:49;97012.78;;;9.73;69.44
1371;BME280;14306;49.942;11.570;2022-12-29T08:17:18;97010.28;;;9.76;69.36
1371;BME280;14306;49.942;11.570;2022-12-29T08:19:46;97018.34;;;10.20;70.81
1371;BME280;14306;49.942;11.570;2022-12-29T08:22:14;97008.97;;;9.96;71.20
1371;BME280;14306;49.942;11.570;2022-12-29T08:24:42;97013.53;;;10.09;70.68
1371;BME280;14306;49.942;11.570;2022-12-29T08:27:12;96987.75;;;9.89;70.90
1371;BME280;14306;49.942;11.570;2022-12-29T08:29:46;97006.50;;;10.38;70.55
1371;BME280;14306;49.942;11.570;2022-12-29T08:32:15;97008.19;;;10.56;70.34
1371;BME280;14306;49.942;11.570;2022-12-29T08:34:43;97009.25;;;11.11;68.35
1371;BME280;14306;49.942;11.570;2022-12-29T08:37:11;97004.19;;;11.18;67.21
1371;BME280;14306;49.942;11.570;2022-12-29T08:39:39;97000.00;;;11.12;66.90
1371;BME280;14306;49.942;11.570;2022-12-29T08:42:07;96998.91;;;11.47;65.69
1371;BME280;14306;49.942;11.570;2022-12-29T08:44:36;97002.13;;;11.75;65.48
1371;BME280;14306;49.942;11.570;2022-12-29T08:47:04;97009.88;;;12.11;65.44
1371;BME280;14306;49.942;11.570;2022-12-29T08:49:33;97003.78;;;12.22;64.63
1371;BME280;14306;49.942;11.570;2022-12-29T08:52:01;97005.25;;;12.11;62.93
1371;BME280;14306;49.942;11.570;2022-12-29T08:54:29;97013.38;;;12.20;63.12
1371;BME280;14306;49.942;11.570;2022-12-29T08:56:57;97006.03;;;12.12;63.19
1371;BME280;14306;49.942;11.570;2022-12-29T08:59:26;97010.66;;;12.20;62.91
1371;BME280;14306;49.942;11.570;2022-12-29T09:01:55;97021.25;;;12.04;64.36
1371;BME280;14306;49.942;11.570;2022-12-29T09:04:23;97003.13;;;12.25;63.64
1371;BME280;14306;49.942;11.570;2022-12-29T09:06:52;96995.25;;;12.41;63.22
1371;BME280;14306;49.942;11.570;2022-12-29T09:09:21;96989.22;;;12.27;63.69
1371;BME280;14306;49.942;11.570;2022-12-29T09:11:49;96985.88;;;12.30;63.08
1371;BME280;14306;49.942;11.570;2022-12-29T09:14:17;96989.63;;;12.46;62.52
1371;BME280;14306;49.942;11.570;2022-12-29T09:16:45;96995.34;;;12.61;62.19
1371;BME280;14306;49.942;11.570;2022-12-29T09:19:32;97004.16;;;12.50;62.14
1371;BME280;14306;49.942;11.570;2022-12-29T09:22:00;97006.03;;;12.58;62.45
1371;BME280;14306;49.942;11.570;2022-12-29T09:24:29;97009.03;;;12.73;61.60
1371;BME280;14306;49.942;11.570;2022-12-29T09:26:58;97006.72;;;12.84;62.24
1371;BME280;14306;49.942;11.570;2022-12-29T09:29:26;97008.06;;;13.07;61.11
1371;BME280;14306;49.942;11.570;2022-12-29T09:31:54;96996.34;;;12.86;61.55
1371;BME280;14306;49.942;11.570;2022-12-29T09:34:22;97006.19;;;12.99;61.48
1371;BME280;14306;49.942;11.570;2022-12-29T09:36:52;97011.63;;;12.99;60.92
1371;BME280;14306;49.942;11.570;2022-12-29T09:39:20;97006.75;;;13.13;60.33
1371;BME280;14306;49.942;11.570;2022-12-29T09:41:52;97001.56;;;12.99;60.32
1371;BME280;14306;49.942;11.570;2022-12-29T09:44:31;97013.91;;;13.17;60.16
1371;BME280;14306;49.942;11.570;2022-12-29T09:47:03;96992.78;;;12.94;60.68
1371;BME280;14306;49.942;11.570;2022-12-29T09:49:38;96994.78;;;13.05;59.26
1371;BME280;14306;49.942;11.570;2022-12-29T09:52:14;97000.78;;;13.19;60.41
1371;BME280;14306;49.942;11.570;2022-12-29T09:54:49;97000.25;;;13.26;59.57
1371;BME280;14306;49.942;11.570;2022-12-29T09:57:33;97001.91;;;13.39;59.54
1371;BME280;14306;49.942;11.570;2022-12-29T10:00:10;97000.03;;;13.10;59.50
1371;BME280;14306;49.942;11.570;2022-12-29T10:02:41;96995.53;;;13.35;58.87
1371;BME280;14306;49.942;11.570;2022-12-29T10:05:20;97002.69;;;13.80;58.62
1371;BME280;14306;49.942;11.570;2022-12-29T10:07:59;96990.34;;;13.62;58.70
1371;BME280;14306;49.942;11.570;2022-12-29T10:10:35;96986.75;;;13.70;58.04
1371;BME280;14306;49.942;11.570;2022-12-29T10:13:20;96981.38;;;13.82;58.02
1371;BME280;14306;49.942;11.570;2022-12-29T10:15:59;96979.34;;;13.79;57.43
1371;BME280;14306;49.942;11.570;2022-12-29T10:21:25;96984.81;;;14.24;56.45
1371;BME280;14306;49.942;11.570;2022-12-29T10:23:59;96980.63;;;14.26;56.12
1371;BME280;14306;49.942;11.570;2022-12-29T10:26:36;96980.31;;;14.40;56.08
1371;BME280;14306;49.942;11.570;2022-12-29T10:29:13;96979.63;;;14.43;55.92
1371;BME280;14306;49.942;11.570;2022-12-29T10:31:44;96971.47;;;14.55;55.69
1371;BME280;14306;49.942;11.570;2022-12-29T10:34:20;96974.19;;;14.67;55.64
1371;BME280;14306;49.942;11.570;2022-12-29T10:36:54;96970.69;;;14.90;54.48
1371;BME280;14306;49.942;11.570;2022-12-29T10:39:30;96975.97;;;15.11;54.12
1371;BME280;14306;49.942;11.570;2022-12-29T10:42:05;96961.69;;;14.90;60.26
1371;BME280;14306;49.942;11.570;2022-12-29T10:44:38;96934.31;;;14.86;63.71
1371;BME280;14306;49.942;11.570;2022-12-29T10:47:12;96925.00;;;14.51;62.05
1371;BME280;14306;49.942;11.570;2022-12-29T10:49:42;96923.31;;;14.59;61.20
1371;BME280;14306;49.942;11.570;2022-12-29T10:52:13;96929.31;;;14.76;59.42
1371;BME280;14306;49.942;11.570;2022-12-29T10:54:48;96911.03;;;14.89;57.15
1371;BME280;14306;49.942;11.570;2022-12-29T10:57:25;96929.31;;;14.88;56.76
1371;BME280;14306;49.942;11.570;2022-12-29T10:59:54;96933.47;;;15.10;56.98
1371;BME280;14306;49.942;11.570;2022-12-29T11:02:38;96931.06;;;15.20;55.98
1371;BME280;14306;49.942;11.570;2022-12-29T11:05:19;96940.31;;;15.04;54.84
1371;BME280;14306;49.942;11.570;2022-12-29T11:07:53;96943.66;;;15.37;54.93
1371;BME280;14306;49.942;11.570;2022-12-29T11:10:35;96926.53;;;15.12;55.65
1371;BME280;14306;49.942;11.570;2022-12-29T11:13:13;96943.16;;;14.95;55.18
1371;BME280;14306;49.942;11.570;2022-12-29T11:15:43;96940.88;;;14.97;54.37
1371;BME280;14306;49.942;11.570;2022-12-29T11:18:20;96944.56;;;15.29;53.77
1371;BME280;14306;49.942;11.570;2022-12-29T11:20:51;96937.34;;;15.09;54.12
1371;BME280;14306;49.942;11.570;2022-12-29T11:23:29;96942.34;;;15.19;54.74
1371;BME280;14306;49.942;11.570;2022-12-29T11:26:14;96951.06;;;15.12;55.50
1371;BME280;14306;49.942;11.570;2022-12-29T11:28:44;96941.03;;;14.89;57.34
1371;BME280;14306;49.942;11.570;2022-12-29T11:31:16;96939.94;;;15.05;55.58
1371;BME280;14306;49.942;11.570;2022-12-29T11:33:45;96944.50;;;15.13;55.62
1371;BME280;14306;49.942;11.570;2022-12-29T11:36:16;96945.13;;;15.34;54.67
1371;BME280;14306;49.942;11.570;2022-12-29T11:38:49;96939.16;;;15.17;54.94
1371;BME280;14306;49.942;11.570;2022-12-29T11:41:22;96936.31;;;15.01;54.41
1371;BME280;14306;49.942;11.570;2022-12-29T11:43:52;96934.31;;;14.98;54.81
1371;BME280;14306;49.942;11.570;2022-12-29T11:46:24;96933.78;;;15.20;54.51
1371;BME280;14306;49.942;11.570;2022-12-29T11:48:54;96937.19;;;15.29;54.35
1371;BME280;14306;49.942;11.570;2022-12-29T11:51:27;96941.41;;;15.27;54.30
1371;BME280;14306;49.942;11.570;2022-12-29T11:53:57;96927.59;;;15.08;56.08
1371;BME280;14306;49.942;11.570;2022-12-29T11:56:36;96918.06;;;14.42;56.83
1371;BME280;14306;49.942;11.570;2022-12-29T11:59:40;96926.00;;;14.95;56.44
1371;BME280;14306;49.942;11.570;2022-12-29T12:02:28;96931.34;;;14.91;56.11
1371;BME280;14306;49.942;11.570;2022-12-29T12:05:13;96929.66;;;14.87;56.17
1371;BME280;14306;49.942;11.570;2022-12-29T12:07:46;96918.84;;;14.78;56.50
1371;BME280;14306;49.942;11.570;2022-12-29T12:10:24;96923.66;;;14.33;64.03
1371;BME280;14306;49.942;11.570;2022-12-29T12:12:59;96907.03;;;14.02;64.42
1371;BME280;14306;49.942;11.570;2022-12-29T12:15:31;96906.56;;;14.00;63.66
1371;BME280;14306;49.942;11.570;2022-12-29T12:18:16;96907.03;;;14.14;63.08
1371;BME280;14306;49.942;11.570;2022-12-29T12:20:52;96899.97;;;14.13;61.66
1371;BME280;14306;49.942;11.570;2022-12-29T12:23:36;96901.44;;;14.11;60.64
1371;BME280;14306;49.942;11.570;2022-12-29T12:26:11;96910.03;;;14.21;59.99
1371;BME280;14306;49.942;11.570;2022-12-29T12:28:48;96903.78;;;14.45;59.71
1371;BME280;14306;49.942;11.570;2022-12-29T12:31:27;96894.03;;;14.32;59.49
1371;BME280;14306;49.942;11.570;2022-12-29T12:34:06;96900.03;;;14.49;58.78
1371;BME280;14306;49.942;11.570;2022-12-29T12:37:02;96890.06;;;14.29;59.42
1371;BME280;14306;49.942;11.570;2022-12-29T12:39:43;96890.72;;;14.38;59.31
1371;BME280;14306;49.942;11.570;2022-12-29T12:42:25;96894.13;;;14.23;59.54
1371;BME280;14306;49.942;11.570;2022-12-29T12:45:08;96896.50;;;14.25;59.21
1371;BME280;14306;49.942;11.570;2022-12-29T12:47:52;96900.22;;;14.20;59.71
1371;BME280;14306;49.942;11.570;2022-12-29T12:50:35;96881.81;;;13.93;60.33
1371;BME280;14306;49.942;11.570;2022-12-29T12:53:25;96892.28;;;14.15;59.36
1371;BME280;14306;49.942;11.570;2022-12-29T12:56:14;96900.44;;;14.15;60.42
1371;BME280;14306;49.942;11.570;2022-12-29T12:58:50;96909.56;;;14.31;59.48
1371;BME280;14306;49.942;11.570;2022-12-29T13:01:33;96900.16;;;14.41;59.45
1371;BME280;14306;49.942;11.570;2022-12-29T13:04:38;96911.69;;;14.14;60.14
1371;BME280;14306;49.942;11.570;2022-12-29T13:07:19;96918.97;;;14.46;59.93
1371;BME280;14306;49.942;11.570;2022-12-29T13:10:01;96919.31;;;14.32;60.05
1371;BME280;14306;49.942;11.570;2022-12-29T13:12:36;96915.31;;;14.18;60.20
1371;BME280;14306;49.942;11.570;2022-12-29T13:15:18;96927.16;;;14.22;60.04
1371;BME280;14306;49.942;11.570;2022-12-29T13:17:54;96913.31;;;14.27;59.63
1371;BME280;14306;49.942;11.570;2022-12-29T13:20:32;96914.09;;;14.39;59.82
1371;BME280;14306;49.942;11.570;2022-12-29T13:23:09;96909.88;;;14.18;59.62
1371;BME280;14306;49.942;11.570;2022-12-29T13:25:48;96919.47;;;14.48;59.13
1371;BME280;14306;49.942;11.570;2022-12-29T13:28:23;96921.84;;;14.25;59.30
1371;BME280;14306;49.942;11.570;2022-12-29T13:30:58;96929.34;;;14.52;59.27
1371;BME280;14306;49.942;11.570;2022-12-29T13:33:37;96932.59;;;14.34;59.63
1371;BME280;14306;49.942;11.570;2022-12-29T13:36:19;96919.94;;;14.17;59.65
1371;BME280;14306;49.942;11.570;2022-12-29T13:38:50;96933.41;;;14.22;59.88